createdAt,value
2018-07-20T00:00:44.463Z,21.48
2018-07-20T00:03:12.097Z,21.41
2018-07-20T00:05:39.720Z,21.39
2018-07-20T00:08:07.462Z,21.34
2018-07-20T00:10:35.104Z,21.29
2018-07-20T00:13:02.697Z,21.24
2018-07-20T00:15:30.311Z,21.20
2018-07-20T00:17:57.933Z,21.19
2018-07-20T00:20:25.597Z,21.16
2018-07-20T00:22:53.215Z,21.09
2018-07-20T00:25:20.901Z,21.06
2018-07-20T00:27:48.463Z,21.01
2018-07-20T00:30:16.092Z,21.00
2018-07-20T00:32:43.692Z,20.97
2018-07-20T00:35:11.403Z,20.92
2018-07-20T00:37:39.020Z,20.88
2018-07-20T00:40:06.615Z,20.81
2018-07-20T00:42:34.215Z,20.79
2018-07-20T00:45:01.857Z,20.74
2018-07-20T00:47:29.451Z,20.71
2018-07-20T00:49:57.043Z,20.70
2018-07-20T00:52:24.648Z,20.67
2018-07-20T00:54:52.234Z,20.63
2018-07-20T00:57:19.819Z,20.63
2018-07-20T00:59:47.454Z,20.58
2018-07-20T01:02:15.094Z,20.55
2018-07-20T01:04:42.675Z,20.53
2018-07-20T01:07:10.375Z,20.53
2018-07-20T01:09:37.985Z,20.51
2018-07-20T01:12:05.820Z,20.46
2018-07-20T01:14:33.461Z,20.42
2018-07-20T01:17:01.119Z,20.38
2018-07-20T01:19:28.712Z,20.39
2018-07-20T01:21:56.319Z,20.36
2018-07-20T01:24:23.880Z,20.36
2018-07-20T01:26:51.488Z,20.33
2018-07-20T01:29:19.319Z,20.32
2018-07-20T01:31:46.912Z,20.32
2018-07-20T01:34:14.483Z,20.29
2018-07-20T01:36:42.099Z,20.30
2018-07-20T01:39:09.973Z,20.29
2018-07-20T01:41:37.684Z,20.25
2018-07-20T01:44:05.367Z,20.26
2018-07-20T01:46:33.029Z,20.18
2018-07-20T01:49:00.632Z,20.14
2018-07-20T01:51:28.222Z,20.13
2018-07-20T01:53:55.783Z,20.16
2018-07-20T01:56:23.371Z,20.11
2018-07-20T01:58:50.995Z,20.07
2018-07-20T02:01:18.697Z,20.03
2018-07-20T02:03:46.286Z,19.91
2018-07-20T02:06:13.912Z,19.87
2018-07-20T02:08:41.504Z,19.84
2018-07-20T02:11:09.063Z,19.81
2018-07-20T02:13:36.696Z,19.75
2018-07-20T02:16:04.288Z,19.73
2018-07-20T02:18:31.864Z,19.69
2018-07-20T02:20:59.515Z,19.67
2018-07-20T02:23:27.095Z,19.58
2018-07-20T02:25:54.669Z,19.60
2018-07-20T02:28:22.403Z,19.58
2018-07-20T02:30:49.974Z,19.54
2018-07-20T02:33:17.551Z,19.50
2018-07-20T02:35:45.188Z,19.43
2018-07-20T02:38:12.756Z,19.41
2018-07-20T02:40:40.348Z,19.38
2018-07-20T02:43:08.058Z,19.35
2018-07-20T02:45:35.664Z,19.32
2018-07-20T02:48:03.274Z,19.27
2018-07-20T02:50:30.983Z,19.24
2018-07-20T02:52:58.559Z,19.21
2018-07-20T02:55:26.140Z,19.17
2018-07-20T02:57:53.800Z,19.15
2018-07-20T03:00:21.472Z,19.12
2018-07-20T03:02:49.047Z,19.04
2018-07-20T03:05:16.677Z,19.02
2018-07-20T03:07:44.264Z,19.02
2018-07-20T03:10:11.833Z,19.01
2018-07-20T03:12:39.419Z,18.94
2018-07-20T03:15:07.046Z,18.92
2018-07-20T03:17:34.606Z,18.91
2018-07-20T03:20:02.267Z,18.94
2018-07-20T03:22:29.906Z,18.92
2018-07-20T03:24:57.539Z,18.89
2018-07-20T03:27:25.161Z,18.88
2018-07-20T03:29:52.747Z,18.86
2018-07-20T03:32:20.332Z,18.86
2018-07-20T03:34:47.948Z,18.86
2018-07-20T03:37:15.575Z,18.87
2018-07-20T03:39:43.861Z,18.87
2018-07-20T03:42:11.575Z,18.87
2018-07-20T03:44:39.188Z,18.87
2018-07-20T03:47:06.840Z,18.87
2018-07-20T03:49:34.455Z,18.91
2018-07-20T03:52:02.051Z,18.92
2018-07-20T03:54:29.621Z,18.96
2018-07-20T03:56:57.211Z,18.97
2018-07-20T03:59:24.788Z,18.97
2018-07-20T04:01:52.364Z,19.00
2018-07-20T04:04:19.970Z,18.98
2018-07-20T04:06:47.541Z,18.99
2018-07-20T04:09:15.112Z,18.96
2018-07-20T04:11:42.731Z,19.03
2018-07-20T04:14:10.338Z,19.00
2018-07-20T04:16:38.063Z,19.02
2018-07-20T04:19:05.780Z,19.06
2018-07-20T04:21:33.372Z,19.09
2018-07-20T04:24:01.108Z,19.06
2018-07-20T04:26:28.712Z,19.08
2018-07-20T04:28:56.281Z,19.14
2018-07-20T04:31:23.880Z,19.14
2018-07-20T04:33:51.539Z,19.14
2018-07-20T04:36:19.103Z,19.15
2018-07-20T04:38:46.703Z,19.20
2018-07-20T04:41:14.331Z,19.26
2018-07-20T04:43:41.912Z,19.33
2018-07-20T04:46:09.549Z,19.43
2018-07-20T04:48:37.148Z,19.44
2018-07-20T04:51:04.704Z,19.50
2018-07-20T04:53:32.284Z,19.56
2018-07-20T04:55:59.895Z,19.60
2018-07-20T04:58:27.503Z,19.62
2018-07-20T05:00:55.073Z,19.62
2018-07-20T05:03:22.811Z,19.65
2018-07-20T05:05:50.442Z,19.73
2018-07-20T05:08:18.048Z,19.85
2018-07-20T05:10:45.672Z,19.90
2018-07-20T05:13:13.251Z,19.98
2018-07-20T05:15:40.815Z,20.07
2018-07-20T05:18:08.443Z,20.17
2018-07-20T05:20:36.010Z,20.28
2018-07-20T05:23:03.596Z,20.40
2018-07-20T05:25:31.321Z,20.47
2018-07-20T05:27:58.877Z,20.57
2018-07-20T05:30:26.476Z,20.67
2018-07-20T05:32:54.166Z,20.79
2018-07-20T05:35:21.804Z,20.89
2018-07-20T05:37:49.397Z,21.00
2018-07-20T05:40:16.999Z,21.14
2018-07-20T05:42:44.559Z,21.22
2018-07-20T05:45:12.160Z,21.33
2018-07-20T05:47:39.779Z,21.42
2018-07-20T05:50:07.908Z,21.48
2018-07-20T05:52:35.521Z,21.54
2018-07-20T05:55:03.988Z,21.66
2018-07-20T05:57:31.597Z,21.84
2018-07-20T05:59:59.147Z,21.98
2018-07-20T06:02:26.787Z,22.07
2018-07-20T06:04:54.368Z,22.16
2018-07-20T06:07:21.942Z,22.25
2018-07-20T06:09:49.559Z,22.40
2018-07-20T06:12:17.148Z,22.59
2018-07-20T06:14:44.921Z,22.73
2018-07-20T06:17:13.712Z,22.82
2018-07-20T06:19:41.277Z,22.89
2018-07-20T06:22:08.896Z,23.04
2018-07-20T06:24:36.590Z,23.19
2018-07-20T06:27:04.247Z,23.33
2018-07-20T06:29:31.916Z,23.49
2018-07-20T06:31:59.571Z,23.62
2018-07-20T06:34:27.225Z,23.79
2018-07-20T06:36:54.804Z,23.91
2018-07-20T06:39:22.408Z,24.03
2018-07-20T06:41:50.007Z,24.16
2018-07-20T06:44:17.604Z,24.34
2018-07-20T06:46:45.203Z,24.47
2018-07-20T06:49:12.793Z,24.61
2018-07-20T06:51:40.452Z,24.74
2018-07-20T06:54:08.101Z,24.92
2018-07-20T06:56:35.677Z,24.95
2018-07-20T06:59:03.292Z,25.06
2018-07-20T07:01:31.221Z,25.15
2018-07-20T07:03:58.792Z,25.34
2018-07-20T07:06:26.425Z,25.48
2018-07-20T07:08:54.024Z,25.64
2018-07-20T07:11:21.683Z,25.84
2018-07-20T07:13:49.253Z,25.97
2018-07-20T07:16:17.341Z,26.14
2018-07-20T07:18:44.953Z,26.33
2018-07-20T07:21:12.512Z,26.42
2018-07-20T07:23:40.217Z,26.61
2018-07-20T07:26:07.788Z,26.72
2018-07-20T07:28:36.366Z,26.95
2018-07-20T07:31:03.973Z,26.98
2018-07-20T07:33:31.540Z,27.18
2018-07-20T07:35:59.128Z,27.39
2018-07-20T07:38:26.757Z,27.60
2018-07-20T07:40:54.356Z,27.69
2018-07-20T07:43:21.927Z,27.84
2018-07-20T07:45:49.527Z,27.97
2018-07-20T07:48:17.121Z,28.05
2018-07-20T07:50:44.757Z,28.29
2018-07-20T07:53:12.353Z,28.31
2018-07-20T07:55:39.981Z,28.42
2018-07-20T07:58:07.564Z,28.50
2018-07-20T08:00:35.181Z,28.65
2018-07-20T08:03:02.811Z,28.87
2018-07-20T08:05:30.376Z,29.06
2018-07-20T08:07:58.012Z,29.32
2018-07-20T08:10:25.664Z,29.42
2018-07-20T08:12:53.887Z,29.47
2018-07-20T08:15:21.509Z,29.57
2018-07-20T08:17:49.140Z,29.63
2018-07-20T08:20:16.844Z,29.61
2018-07-20T08:22:44.560Z,29.73
2018-07-20T08:25:12.196Z,30.04
2018-07-20T08:27:39.767Z,30.03
2018-07-20T08:30:07.427Z,30.32
2018-07-20T08:32:35.036Z,30.61
2018-07-20T08:35:03.206Z,30.78
2018-07-20T08:37:30.817Z,30.85
2018-07-20T08:39:58.407Z,31.08
2018-07-20T08:42:26.007Z,31.06
2018-07-20T08:44:53.632Z,31.22
2018-07-20T08:47:21.312Z,31.55
2018-07-20T08:49:48.945Z,31.96
2018-07-20T08:52:16.776Z,32.29
2018-07-20T08:54:44.443Z,32.59
2018-07-20T08:57:12.039Z,32.75
2018-07-20T08:59:39.644Z,32.73
2018-07-20T09:02:07.380Z,33.09
2018-07-20T09:04:35.125Z,33.23
2018-07-20T09:07:02.796Z,33.57
2018-07-20T09:09:30.363Z,33.87
2018-07-20T09:11:57.934Z,34.20
2018-07-20T09:14:25.560Z,34.32
2018-07-20T09:16:53.121Z,34.56
2018-07-20T09:19:20.715Z,34.77
2018-07-20T09:21:48.327Z,33.79
2018-07-20T09:24:15.892Z,32.85
2018-07-20T09:26:43.473Z,33.23
2018-07-20T09:29:11.052Z,32.61
2018-07-20T09:31:38.620Z,31.93
2018-07-20T09:34:06.415Z,31.35
2018-07-20T09:36:34.012Z,30.71
2018-07-20T09:39:01.610Z,30.06
2018-07-20T09:41:29.204Z,29.58
2018-07-20T09:43:56.840Z,29.19
2018-07-20T09:46:24.436Z,29.20
2018-07-20T09:48:52.068Z,29.32
2018-07-20T09:51:19.661Z,30.97
2018-07-20T09:53:47.248Z,32.28
2018-07-20T09:56:14.900Z,33.24
2018-07-20T09:58:42.528Z,33.80
2018-07-20T10:01:10.119Z,34.29
2018-07-20T10:03:37.752Z,34.81
2018-07-20T10:06:05.451Z,35.27
2018-07-20T10:08:33.017Z,35.36
2018-07-20T10:11:00.595Z,35.55
2018-07-20T10:13:28.174Z,35.90
2018-07-20T10:15:55.760Z,36.17
2018-07-20T10:18:23.336Z,36.45
2018-07-20T10:20:50.978Z,36.70
2018-07-20T10:23:18.572Z,36.97
2018-07-20T10:25:46.332Z,36.93
2018-07-20T10:28:14.157Z,36.90
2018-07-20T10:30:41.740Z,36.75
2018-07-20T10:33:09.566Z,37.22
2018-07-20T10:35:37.251Z,37.27
2018-07-20T10:38:05.264Z,37.50
2018-07-20T10:40:32.897Z,37.74
2018-07-20T10:43:00.540Z,37.93
2018-07-20T10:45:28.130Z,37.92
2018-07-20T10:47:55.819Z,38.02
2018-07-20T10:50:23.484Z,38.25
2018-07-20T10:52:51.063Z,38.61
2018-07-20T10:55:19.326Z,38.82
2018-07-20T10:57:47.228Z,38.87
2018-07-20T11:00:14.848Z,38.73
2018-07-20T11:02:42.445Z,38.36
2018-07-20T11:05:10.073Z,38.82
2018-07-20T11:07:37.652Z,39.23
2018-07-20T11:10:05.746Z,39.43
2018-07-20T11:12:33.363Z,39.61
2018-07-20T11:15:00.928Z,39.70
2018-07-20T11:17:28.567Z,39.75
2018-07-20T11:19:56.192Z,39.11
2018-07-20T11:22:23.797Z,39.11
2018-07-20T11:24:51.420Z,38.08
2018-07-20T11:27:19.043Z,37.65
2018-07-20T11:29:46.627Z,36.71
2018-07-20T11:32:14.191Z,35.68
2018-07-20T11:34:41.813Z,35.19
2018-07-20T11:37:09.380Z,35.05
2018-07-20T11:39:36.936Z,35.64
2018-07-20T11:42:04.580Z,35.56
2018-07-20T11:44:32.184Z,34.64
2018-07-20T11:46:59.748Z,34.02
2018-07-20T11:49:27.345Z,34.27
2018-07-20T11:51:54.928Z,34.57
2018-07-20T11:54:22.507Z,33.95
2018-07-20T11:56:50.147Z,33.43
2018-07-20T11:59:18.005Z,33.19
2018-07-20T12:01:45.628Z,34.88
2018-07-20T12:04:13.288Z,36.55
2018-07-20T12:06:40.869Z,37.82
2018-07-20T12:09:10.097Z,38.83
2018-07-20T12:11:37.770Z,39.92
2018-07-20T12:14:05.335Z,40.34
2018-07-20T12:16:32.899Z,40.69
2018-07-20T12:19:00.789Z,41.21
2018-07-20T12:21:28.395Z,41.38
2018-07-20T12:23:55.985Z,41.84
2018-07-20T12:26:23.611Z,42.43
2018-07-20T12:28:51.204Z,42.97
2018-07-20T12:31:18.777Z,43.26
2018-07-20T12:33:46.595Z,42.72
2018-07-20T12:36:14.213Z,41.13
2018-07-20T12:38:41.777Z,42.05
2018-07-20T12:41:09.807Z,42.74
2018-07-20T12:43:37.396Z,42.72
2018-07-20T12:46:05.205Z,42.18
2018-07-20T12:48:33.072Z,40.89
2018-07-20T12:51:00.692Z,41.72
2018-07-20T12:53:28.309Z,42.71
2018-07-20T12:55:56.225Z,42.35
2018-07-20T12:58:23.878Z,40.52
2018-07-20T13:00:51.540Z,40.34
2018-07-20T13:03:19.136Z,41.71
2018-07-20T13:05:46.720Z,42.80
2018-07-20T13:08:14.340Z,43.49
2018-07-20T13:10:42.287Z,43.82
2018-07-20T13:13:10.016Z,44.21
2018-07-20T13:15:37.620Z,43.84
2018-07-20T13:18:05.478Z,43.99
2018-07-20T13:20:33.359Z,44.53
2018-07-20T13:23:00.949Z,44.75
2018-07-20T13:25:28.837Z,44.56
2018-07-20T13:27:56.530Z,44.68
2018-07-20T13:30:24.247Z,43.79
2018-07-20T13:32:52.224Z,44.35
2018-07-20T13:35:20.211Z,44.54
2018-07-20T13:37:47.851Z,44.34
2018-07-20T13:40:15.793Z,43.84
2018-07-20T13:42:43.412Z,42.48
2018-07-20T13:45:11.011Z,43.11
2018-07-20T13:47:38.798Z,43.47
2018-07-20T13:50:06.623Z,43.84
2018-07-20T13:52:34.386Z,44.17
2018-07-20T13:55:02.026Z,44.44
2018-07-20T13:57:31.615Z,44.37
2018-07-20T13:59:59.355Z,44.31
2018-07-20T14:02:27.057Z,44.45
2018-07-20T14:04:54.660Z,44.28
2018-07-20T14:07:22.441Z,44.29
2018-07-20T14:09:50.115Z,44.21
2018-07-20T14:12:17.776Z,43.77
2018-07-20T14:14:45.384Z,43.74
2018-07-20T14:17:13.033Z,43.76
2018-07-20T14:19:40.635Z,43.67
2018-07-20T14:22:08.705Z,43.64
2018-07-20T14:24:36.542Z,43.45
2018-07-20T14:27:04.409Z,43.40
2018-07-20T14:29:34.035Z,43.52
2018-07-20T14:32:01.838Z,43.42
2018-07-20T14:34:29.582Z,43.05
2018-07-20T14:36:57.206Z,43.08
2018-07-20T14:39:24.835Z,43.34
2018-07-20T14:41:52.424Z,43.57
2018-07-20T14:44:20.035Z,43.67
2018-07-20T14:46:47.659Z,43.80
2018-07-20T14:49:15.275Z,43.79
2018-07-20T14:51:42.897Z,43.62
2018-07-20T14:54:10.604Z,43.56
2018-07-20T14:56:38.194Z,42.76
2018-07-20T14:59:05.820Z,42.37
2018-07-20T15:01:33.488Z,42.46
2018-07-20T15:04:01.097Z,42.67
2018-07-20T15:06:28.804Z,42.55
2018-07-20T15:08:56.446Z,42.07
2018-07-20T15:11:24.076Z,41.49
2018-07-20T15:13:51.661Z,40.86
2018-07-20T15:16:19.332Z,40.33
2018-07-20T15:18:46.925Z,39.94
2018-07-20T15:21:14.518Z,39.48
2018-07-20T15:23:42.111Z,39.00
2018-07-20T15:26:09.736Z,38.53
2018-07-20T15:28:37.360Z,38.01
2018-07-20T15:31:05.368Z,37.58
2018-07-20T15:33:32.936Z,37.07
2018-07-20T15:36:00.496Z,36.58
2018-07-20T15:38:28.136Z,36.15
2018-07-20T15:40:55.706Z,35.74
2018-07-20T15:43:23.322Z,35.42
2018-07-20T15:45:52.144Z,35.17
2018-07-20T15:48:18.638Z,34.92
2018-07-20T15:50:46.300Z,34.62
2018-07-20T15:55:41.575Z,34.12
2018-07-20T15:58:09.512Z,33.93
2018-07-20T16:00:37.150Z,33.74
2018-07-20T16:03:04.747Z,33.61
2018-07-20T16:05:32.332Z,33.49
2018-07-20T16:07:59.976Z,33.43
2018-07-20T16:10:27.524Z,33.29
2018-07-20T16:12:55.135Z,33.18
2018-07-20T16:15:22.777Z,33.06
2018-07-20T16:17:50.365Z,32.94
2018-07-20T16:20:17.954Z,32.83
2018-07-20T16:22:45.614Z,32.72
2018-07-20T16:25:13.169Z,32.61
2018-07-20T16:27:40.762Z,32.49
2018-07-20T16:30:08.533Z,32.42
2018-07-20T16:32:36.151Z,32.25
2018-07-20T16:35:04.009Z,32.15
2018-07-20T16:37:31.613Z,32.06
2018-07-20T16:39:59.205Z,31.99
2018-07-20T16:42:26.821Z,31.94
2018-07-20T16:44:54.463Z,31.91
2018-07-20T16:47:22.133Z,31.88
2018-07-20T16:49:49.732Z,31.81
2018-07-20T16:52:17.347Z,31.66
2018-07-20T16:54:44.973Z,31.61
2018-07-20T16:57:12.565Z,31.57
2018-07-20T16:59:40.204Z,31.51
2018-07-20T17:02:07.856Z,31.39
2018-07-20T17:04:35.483Z,31.29
2018-07-20T17:07:03.096Z,31.23
2018-07-20T17:09:30.722Z,31.21
2018-07-20T17:11:58.382Z,31.16
2018-07-20T17:14:26.064Z,31.11
2018-07-20T17:16:53.655Z,31.06
2018-07-20T17:19:21.249Z,30.99
2018-07-20T17:21:48.883Z,30.93
2018-07-20T17:24:16.485Z,30.84
2018-07-20T17:26:44.087Z,30.78
2018-07-20T17:29:11.674Z,30.67
2018-07-20T17:31:39.319Z,30.57
2018-07-20T17:34:06.888Z,30.51
2018-07-20T17:36:35.328Z,30.42
2018-07-20T17:39:03.112Z,30.36
2018-07-20T17:41:30.704Z,30.23
2018-07-20T17:43:58.376Z,30.17
2018-07-20T17:46:25.979Z,30.13
2018-07-20T17:48:53.608Z,30.03
2018-07-20T17:51:21.329Z,29.94
2018-07-20T17:53:49.034Z,29.87
2018-07-20T17:56:16.758Z,29.82
2018-07-20T17:58:44.415Z,29.74
2018-07-20T18:01:12.007Z,29.65
2018-07-20T18:03:39.578Z,29.55
2018-07-20T18:06:07.248Z,29.44
2018-07-20T18:08:35.492Z,29.38
2018-07-20T18:11:03.168Z,29.32
2018-07-20T18:13:31.209Z,29.25
2018-07-20T18:15:59.815Z,29.17
2018-07-20T18:18:27.424Z,29.08
2018-07-20T18:20:55.023Z,29.01
2018-07-20T18:23:22.611Z,28.95
2018-07-20T18:25:50.212Z,28.86
2018-07-20T18:28:18.109Z,28.79
2018-07-20T18:30:45.695Z,28.73
2018-07-20T18:33:13.276Z,28.67
2018-07-20T18:35:40.913Z,28.61
2018-07-20T18:38:08.524Z,28.53
2018-07-20T18:40:36.128Z,28.45
2018-07-20T18:43:03.747Z,28.36
2018-07-20T18:45:31.315Z,28.31
2018-07-20T18:47:59.238Z,28.25
2018-07-20T18:50:26.864Z,28.19
2018-07-20T18:52:54.527Z,28.12
2018-07-20T18:55:22.083Z,28.05
2018-07-20T18:57:49.683Z,27.97
2018-07-20T19:00:17.259Z,27.90
2018-07-20T19:02:44.831Z,27.84
2018-07-20T19:05:12.447Z,27.74
2018-07-20T19:07:40.014Z,27.69
2018-07-20T19:10:07.610Z,27.60
2018-07-20T19:12:35.207Z,27.55
2018-07-20T19:15:02.853Z,27.48
2018-07-20T19:17:30.456Z,27.44
2018-07-20T19:19:58.074Z,27.39
2018-07-20T19:22:25.688Z,27.28
2018-07-20T19:24:53.267Z,27.21
2018-07-20T19:27:20.935Z,27.15
2018-07-20T19:29:48.532Z,27.06
2018-07-20T19:32:16.122Z,27.00
2018-07-20T19:34:43.741Z,26.93
2018-07-20T19:37:11.314Z,26.84
2018-07-20T19:39:38.978Z,26.77
2018-07-20T19:42:06.607Z,26.76
2018-07-20T19:44:34.219Z,26.67
2018-07-20T19:47:01.827Z,26.61
2018-07-20T19:49:29.445Z,26.52
2018-07-20T19:51:57.088Z,26.43
2018-07-20T19:54:24.689Z,26.37
2018-07-20T19:56:52.307Z,26.34
2018-07-20T19:59:20.124Z,26.28
2018-07-20T20:01:47.701Z,26.22
2018-07-20T20:04:15.359Z,26.14
2018-07-20T20:06:42.997Z,26.09
2018-07-20T20:09:11.356Z,26.05
2018-07-20T20:11:38.984Z,26.01
2018-07-20T20:14:06.577Z,25.98
2018-07-20T20:16:36.427Z,25.91
2018-07-20T20:19:04.207Z,25.84
2018-07-20T20:21:31.787Z,25.78
2018-07-20T20:23:59.508Z,25.74
2018-07-20T20:26:27.139Z,25.73
2018-07-20T20:28:54.811Z,25.68
2018-07-20T20:31:22.430Z,25.63
2018-07-20T20:33:50.053Z,25.56
2018-07-20T20:36:17.656Z,25.52
2018-07-20T20:38:46.404Z,25.47
2018-07-20T20:41:14.020Z,25.44
2018-07-20T20:43:41.692Z,25.42
2018-07-20T20:46:09.312Z,25.36
2018-07-20T20:48:37.014Z,25.31
2018-07-20T20:51:04.647Z,25.28
2018-07-20T20:53:32.246Z,25.20
2018-07-20T20:55:59.888Z,25.17
2018-07-20T20:58:27.478Z,25.17
2018-07-20T21:00:55.053Z,25.15
2018-07-20T21:03:22.676Z,25.15
2018-07-20T21:05:50.280Z,25.12
2018-07-20T21:08:17.873Z,25.09
2018-07-20T21:10:45.512Z,25.05
2018-07-20T21:13:13.115Z,25.02
2018-07-20T21:15:40.777Z,25.01
2018-07-20T21:18:08.404Z,25.07
2018-07-20T21:20:35.964Z,25.06
2018-07-20T21:23:03.779Z,25.01
2018-07-20T21:25:31.574Z,25.03
2018-07-20T21:27:59.248Z,25.06
2018-07-20T21:30:26.847Z,25.06
2018-07-20T21:32:54.467Z,25.05
2018-07-20T21:35:23.225Z,25.07
2018-07-20T21:37:50.828Z,25.11
2018-07-20T21:40:18.476Z,25.11
2018-07-20T21:42:46.093Z,25.04
2018-07-20T21:45:14.113Z,25.03
2018-07-20T21:47:41.732Z,25.05
2018-07-20T21:50:09.559Z,25.01
2018-07-20T21:52:37.787Z,25.02
2018-07-20T21:55:05.433Z,25.04
2018-07-20T21:57:33.017Z,25.05
2018-07-20T22:00:00.677Z,24.97
2018-07-20T22:02:28.325Z,24.93
2018-07-20T22:04:55.900Z,24.96
2018-07-20T22:07:23.488Z,24.91
2018-07-20T22:09:51.191Z,24.88
2018-07-20T22:12:18.925Z,24.82
2018-07-20T22:14:46.544Z,24.85
2018-07-20T22:17:14.167Z,24.87
2018-07-20T22:19:41.764Z,24.88
2018-07-20T22:22:09.343Z,24.85
2018-07-20T22:24:36.979Z,24.83
2018-07-20T22:27:04.568Z,24.76
2018-07-20T22:29:32.203Z,24.73
2018-07-20T22:31:59.812Z,24.79
2018-07-20T22:34:27.400Z,24.72
2018-07-20T22:36:56.462Z,24.69
2018-07-20T22:39:24.275Z,24.68
2018-07-20T22:41:52.081Z,24.65
2018-07-20T22:44:19.852Z,24.69
2018-07-20T22:46:47.464Z,24.66
2018-07-20T22:49:15.110Z,24.63
2018-07-20T22:51:42.883Z,24.62
2018-07-20T22:54:10.499Z,24.62
2018-07-20T22:56:38.169Z,24.57
2018-07-20T22:59:05.911Z,24.57
2018-07-20T23:01:33.635Z,24.56
2018-07-20T23:04:01.308Z,24.50
2018-07-20T23:06:28.915Z,24.37
2018-07-20T23:08:56.523Z,24.38
2018-07-20T23:11:24.168Z,24.33
2018-07-20T23:13:51.729Z,24.37
2018-07-20T23:16:19.341Z,24.32
2018-07-20T23:18:46.908Z,24.35
2018-07-20T23:21:14.512Z,24.35
2018-07-20T23:23:42.133Z,24.36
2018-07-20T23:26:09.692Z,24.32
2018-07-20T23:28:37.257Z,24.26
2018-07-20T23:31:04.981Z,24.15
2018-07-20T23:33:32.553Z,24.12
2018-07-20T23:36:00.180Z,24.06
2018-07-20T23:38:27.810Z,24.15
2018-07-20T23:40:55.453Z,24.19
2018-07-20T23:43:24.040Z,24.20
2018-07-20T23:45:51.684Z,24.16
2018-07-20T23:48:19.275Z,24.11
2018-07-20T23:50:46.827Z,24.01
2018-07-20T23:53:14.473Z,23.95
2018-07-20T23:55:42.060Z,23.88
2018-07-20T23:58:09.633Z,23.83
